Thorndale, Pennsylvania
Current Conditions -  °F | °C
As of 3:15 PM on Friday 19 Dec 2014 (Local Time) from KMQS Reporting Station
Clear Clear  
Wind Chill: 31°   Ceiling: Unl
Heat Index: 39°   Visibility: 10mi
Dew Point: 25°   Wind: 14mph
Humidity: 56%   Direction: 320°NW
Pressure: 30.07"   Gusts: 18mph
Location:  40°N, 75.75°W
Report Text: KMQS 192015Z AUTO 32012G16KT 10SM CLR 04/M04 A3007 RMK AO2
Loading
Personal Weather Stations






























Interactive Weather Map New forecast layout! Learn more

10-Day Weather Forecast

Advertisements
Track Severe Weather on mobile